Aviation Digital Data Service (ADDS)

Output produced by METARs form (1628 UTC 30 October 2020)
found at http://www.aviationweather.gov/metar/data/
 
KPDK 301553Z 32015G23KT 10SM CLR 14/06 A3013 RMK AO2 PK WND 31027/1530 SLP205 T01390061
KPDK 301531Z 32018G27KT 10SM SCT029 13/06 A3013 RMK AO2 PK WND 31027/1530 T01330061
KPDK 301135Z 3012/3112 30012G18KT P6SM BKN020 
     FM301400 32012G22KT P6SM SCT035 
     FM301600 32012G20KT P6SM SKC 
     FM301900 34010G16KT P6SM SKC 
     FM302300 34008KT P6SM SKC 
     FM310400 03004KT P6SM SKC